Time;durP1;ratioP1;P1;durP2;ratioP2;P2;SDS_P1;SDS_P2;PMS_P1;PMS_P2;Temp;Humidity;BMP_temperature;BMP_pressure;BME280_temperature;BME280_humidity;BME280_pressure;Samples;Min_cycle;Max_cycle;Signal;HPM_P1;HPM_P2
2021/12/30 00:01:24;;;;;;;1.10;0.20;;;27.80;91.00;;;;;;5100535;28;20551;-76
2021/12/30 00:03:52;;;;;;;1.13;0.13;;;27.10;90.80;;;;;;5093889;28;20515;-76
2021/12/30 00:06:22;;;;;;;1.13;0.20;;;27.10;90.80;;;;;;5092105;28;20027;-75
2021/12/30 00:08:52;;;;;;;2.97;0.50;;;27.20;90.70;;;;;;5090413;27;20552;-75
2021/12/30 00:11:20;;;;;;;1.95;0.20;;;27.60;90.60;;;;;;5092770;28;20076;-75
2021/12/30 00:13:47;;;;;;;4.35;0.35;;;27.50;91.10;;;;;;5084587;27;20039;-75
2021/12/30 00:16:17;;;;;;;0.30;0.10;;;27.60;91.40;;;;;;5089259;28;20040;-76
2021/12/30 00:18:47;;;;;;;1.20;0.20;;;27.60;91.00;;;;;;5091232;28;20478;-77
2021/12/30 00:21:14;;;;;;;0.70;0.10;;;27.50;91.30;;;;;;5087715;28;20055;-75
2021/12/30 00:23:42;;;;;;;2.20;0.20;;;26.90;91.20;;;;;;5096191;28;20065;-77
2021/12/30 00:26:10;;;;;;;0.28;0.10;;;26.90;91.50;;;;;;5095072;28;20031;-75
2021/12/30 00:28:37;;;;;;;0.20;0.10;;;27.50;91.60;;;;;;5092150;27;20600;-76
2021/12/30 00:31:05;;;;;;;0.43;0.10;;;27.80;88.30;;;;;;5093463;28;20606;-78
2021/12/30 00:33:34;;;;;;;1.55;0.10;;;27.90;89.40;;;;;;5091049;27;20031;-76
2021/12/30 00:36:10;;;;;;;0.43;0.10;;;28.20;89.50;;;;;;5095072;27;20023;-76
2021/12/30 00:38:39;;;;;;;2.10;0.20;;;27.70;90.10;;;;;;5091960;28;20036;-78
2021/12/30 00:41:10;;;;;;;1.00;0.22;;;27.10;89.70;;;;;;5092996;28;20161;-77
2021/12/30 00:43:38;;;;;;;1.52;0.22;;;26.40;90.20;;;;;;5098945;28;20023;-78
2021/12/30 00:46:09;;;;;;;0.25;0.10;;;26.70;90.80;;;;;;5094267;27;20052;-77
2021/12/30 00:48:37;;;;;;;0.73;0.10;;;27.20;88.30;;;;;;5094586;28;20155;-77
2021/12/30 00:51:05;;;;;;;0.50;0.15;;;27.60;89.90;;;;;;5091370;28;20030;-77
2021/12/30 00:53:34;;;;;;;2.53;0.80;;;27.40;89.80;;;;;;5088573;28;20043;-75
2021/12/30 00:56:03;;;;;;;1.52;0.40;;;27.00;90.00;;;;;;5091436;28;20110;-76
2021/12/30 00:58:30;;;;;;;0.22;0.10;;;26.50;89.80;;;;;;5090288;28;20028;-76
2021/12/30 01:00:59;;;;;;;0.80;0.20;;;26.30;90.40;;;;;;5092490;28;20041;-75
2021/12/30 01:03:28;;;;;;;0.52;0.10;;;26.70;91.10;;;;;;5089871;28;20131;-75
2021/12/30 01:05:55;;;;;;;0.32;0.10;;;27.10;90.40;;;;;;5092325;27;20124;-77
2021/12/30 01:08:23;;;;;;;0.28;0.10;;;27.60;88.60;;;;;;5091245;28;20059;-77
2021/12/30 01:10:51;;;;;;;1.52;0.45;;;28.10;88.60;;;;;;5093091;28;20015;-77
2021/12/30 01:13:24;;;;;;;0.68;0.10;;;28.70;87.80;;;;;;5092296;28;20026;-74
2021/12/30 01:16:02;;;;;;;0.50;0.15;;;29.10;85.20;;;;;;5093113;28;20023;-75
2021/12/30 01:18:43;;;;;;;0.73;0.10;;;29.30;84.40;;;;;;5089655;28;20061;-75
2021/12/30 01:21:13;;;;;;;0.73;0.10;;;29.10;85.80;;;;;;5091350;28;20027;-74
2021/12/30 01:23:41;;;;;;;1.02;0.15;;;29.10;83.80;;;;;;5087943;28;20025;-76
2021/12/30 01:26:10;;;;;;;2.83;0.17;;;29.00;82.60;;;;;;5084885;28;20689;-77
2021/12/30 01:28:38;;;;;;;1.02;0.20;;;29.10;84.30;;;;;;5092545;28;20531;-74
2021/12/30 01:31:06;;;;;;;2.05;0.30;;;28.80;83.70;;;;;;5095759;28;20043;-74
2021/12/30 01:33:34;;;;;;;0.30;0.00;;;28.90;84.20;;;;;;5095549;28;20032;-79
2021/12/30 01:36:01;;;;;;;3.65;0.10;;;29.30;80.60;;;;;;5092166;28;20039;-80
2021/12/30 01:38:29;;;;;;;0.22;0.13;;;29.30;79.70;;;;;;5091546;28;20024;-78
2021/12/30 01:41:00;;;;;;;2.47;0.10;;;29.40;77.70;;;;;;5095728;28;20050;-79
2021/12/30 01:43:28;;;;;;;0.10;0.10;;;29.40;82.10;;;;;;5091700;28;20046;-76
2021/12/30 01:45:56;;;;;;;6.32;0.60;;;29.70;80.10;;;;;;5071554;28;20465;-78
2021/12/30 01:48:24;;;;;;;0.68;0.10;;;30.10;80.10;;;;;;5091056;28;20032;-74
2021/12/30 01:50:52;;;;;;;0.20;0.10;;;30.00;82.40;;;;;;5089263;28;20024;-76
2021/12/30 01:53:19;;;;;;;1.90;0.20;;;29.90;79.20;;;;;;5091958;28;20061;-76
2021/12/30 01:55:49;;;;;;;0.08;0.00;;;30.30;80.70;;;;;;5091048;28;20076;-75
2021/12/30 01:58:18;;;;;;;0.05;0.05;;;30.40;80.00;;;;;;5090075;28;20069;-75
2021/12/30 02:00:48;;;;;;;1.55;0.40;;;30.60;80.80;;;;;;5094511;28;20015;-78
2021/12/30 02:03:16;;;;;;;1.02;0.10;;;30.50;78.20;;;;;;5094119;27;20023;-75
2021/12/30 02:05:44;;;;;;;0.38;0.20;;;30.20;78.60;;;;;;5095793;28;20093;-78
2021/12/30 02:08:15;;;;;;;0.28;0.25;;;29.60;79.30;;;;;;5094764;27;20435;-77
2021/12/30 02:10:44;;;;;;;0.65;0.10;;;29.10;79.80;;;;;;5096363;27;20051;-75
2021/12/30 02:13:14;;;;;;;1.58;0.20;;;29.20;83.30;;;;;;5109380;28;20024;-75
2021/12/30 02:15:42;;;;;;;1.00;0.10;;;29.80;81.20;;;;;;5101367;28;20586;-76
2021/12/30 02:18:09;;;;;;;3.47;0.28;;;30.10;78.80;;;;;;5100131;28;20539;-74
2021/12/30 02:20:47;;;;;;;1.85;0.40;;;30.00;77.80;;;;;;5100035;28;20035;-77
2021/12/30 02:23:27;;;;;;;0.45;0.20;;;30.40;78.70;;;;;;5094506;27;20110;-75
2021/12/30 02:25:57;;;;;;;0.20;0.00;;;30.80;76.20;;;;;;5097734;28;20046;-76
2021/12/30 02:28:27;;;;;;;0.20;0.20;;;31.30;75.20;;;;;;5102872;28;20561;-75
2021/12/30 02:30:57;;;;;;;0.80;0.10;;;31.70;77.30;;;;;;5093033;28;20039;-76
2021/12/30 02:33:25;;;;;;;0.30;0.10;;;31.90;75.30;;;;;;5071391;28;20039;-76
2021/12/30 02:35:54;;;;;;;0.10;0.00;;;32.10;73.40;;;;;;5106804;28;20225;-75
2021/12/30 02:38:22;;;;;;;0.10;0.10;;;31.80;72.50;;;;;;5099702;28;20016;-75
2021/12/30 02:40:53;;;;;;;0.75;0.10;;;31.90;73.60;;;;;;5102518;28;20040;-76
2021/12/30 02:43:27;;;;;;;1.35;0.10;;;32.30;74.90;;;;;;5088964;28;20051;-76
2021/12/30 02:45:56;;;;;;;1.58;0.20;;;32.40;75.00;;;;;;5088139;27;20791;-77
2021/12/30 02:48:27;;;;;;;0.25;0.10;;;32.30;73.50;;;;;;5091655;28;20016;-76
2021/12/30 02:51:01;;;;;;;0.52;0.40;;;32.30;73.60;;;;;;5093807;27;20042;-76
2021/12/30 02:53:28;;;;;;;2.85;0.10;;;31.90;72.80;;;;;;5094179;28;20036;-75
2021/12/30 02:55:56;;;;;;;0.52;0.10;;;32.00;74.30;;;;;;5093624;28;20500;-75
2021/12/30 02:58:26;;;;;;;0.30;0.17;;;31.90;72.20;;;;;;5093893;28;20027;-77
2021/12/30 03:01:19;;;;;;;1.45;0.85;;;32.20;74.60;;;;;;5095481;28;20031;-74
2021/12/30 03:03:47;;;;;;;0.00;0.00;;;32.70;72.60;;;;;;5103280;28;20444;-75
2021/12/30 03:06:16;;;;;;;1.58;0.20;;;32.70;73.00;;;;;;5102681;28;20036;-75
2021/12/30 03:08:46;;;;;;;0.32;0.10;;;32.90;71.70;;;;;;5106882;28;20505;-77
2021/12/30 03:11:14;;;;;;;0.65;0.10;;;33.10;71.80;;;;;;5106269;28;20103;-76
2021/12/30 03:13:44;;;;;;;1.05;0.10;;;33.20;72.50;;;;;;5090057;28;20040;-73
2021/12/30 03:16:17;;;;;;;0.20;0.10;;;33.20;70.40;;;;;;5094222;27;20049;-74
2021/12/30 03:18:47;;;;;;;0.80;0.10;;;32.40;70.10;;;;;;5101923;28;20461;-76
2021/12/30 03:21:21;;;;;;;0.30;0.00;;;32.70;71.30;;;;;;5105417;28;20038;-74
2021/12/30 03:23:50;;;;;;;0.20;0.10;;;32.90;69.10;;;;;;5095678;28;20043;-76
2021/12/30 03:26:18;;;;;;;0.95;0.10;;;32.90;70.20;;;;;;5095106;27;20043;-77
2021/12/30 03:28:47;;;;;;;0.93;0.20;;;32.70;69.60;;;;;;5091605;27;20031;-78
2021/12/30 03:31:17;;;;;;;0.10;0.10;;;32.20;69.60;;;;;;5093693;28;20081;-77
2021/12/30 03:33:45;;;;;;;0.90;0.10;;;31.70;70.70;;;;;;5093686;28;20716;-78
2021/12/30 03:36:13;;;;;;;2.45;0.55;;;31.20;71.30;;;;;;5093892;27;20087;-76
2021/12/30 03:38:47;;;;;;;1.42;0.10;;;30.60;71.90;;;;;;5096541;28;20117;-76
2021/12/30 03:41:18;;;;;;;0.22;0.10;;;30.20;73.50;;;;;;5094447;28;20039;-77
2021/12/30 03:43:46;;;;;;;1.55;0.10;;;29.90;74.90;;;;;;5091843;28;20095;-76
2021/12/30 03:46:13;;;;;;;0.40;0.20;;;29.80;74.40;;;;;;5094174;28;20070;-76
2021/12/30 03:48:43;;;;;;;1.90;0.38;;;29.80;74.70;;;;;;5099186;28;20111;-76
2021/12/30 03:51:19;;;;;;;0.00;0.00;;;29.70;73.60;;;;;;5093245;28;20630;-76
2021/12/30 03:53:49;;;;;;;2.05;0.13;;;29.60;75.20;;;;;;5090622;28;20019;-77
2021/12/30 03:56:19;;;;;;;0.82;0.10;;;30.00;74.90;;;;;;5091708;27;20529;-76
2021/12/30 03:58:47;;;;;;;0.65;0.15;;;31.00;75.50;;;;;;5086979;27;20608;-75
2021/12/30 04:01:20;;;;;;;0.63;0.10;;;31.90;72.50;;;;;;5100873;27;20023;-74
2021/12/30 04:03:48;;;;;;;0.63;0.10;;;32.50;71.30;;;;;;5100128;28;20039;-73
2021/12/30 04:06:16;;;;;;;0.95;0.10;;;33.20;74.10;;;;;;5103287;28;20035;-74
2021/12/30 04:08:43;;;;;;;0.20;0.10;;;33.70;72.40;;;;;;5097524;28;20489;-73
2021/12/30 04:11:11;;;;;;;0.30;0.00;;;33.70;69.50;;;;;;5089112;27;20051;-73
2021/12/30 04:13:38;;;;;;;1.58;0.17;;;33.60;70.10;;;;;;5090337;28;20370;-74
2021/12/30 04:16:07;;;;;;;0.68;0.10;;;33.00;69.90;;;;;;5092034;28;20722;-76
2021/12/30 04:18:35;;;;;;;0.57;0.08;;;32.20;69.80;;;;;;5092807;28;20107;-74
2021/12/30 04:21:02;;;;;;;1.63;0.40;;;31.80;70.70;;;;;;5073928;28;20062;-76
2021/12/30 04:23:30;;;;;;;2.40;0.38;;;31.20;70.50;;;;;;5090335;28;20091;-75
2021/12/30 04:25:57;;;;;;;1.17;0.25;;;30.70;70.60;;;;;;5093586;28;20107;-76
2021/12/30 04:28:25;;;;;;;0.10;0.00;;;30.30;70.70;;;;;;5097917;27;20032;-75
2021/12/30 04:30:52;;;;;;;0.15;0.00;;;29.80;71.30;;;;;;5101887;28;20043;-76
2021/12/30 04:33:20;;;;;;;0.17;0.10;;;29.50;72.10;;;;;;5105153;28;20055;-78
2021/12/30 04:35:55;;;;;;;2.78;0.10;;;29.20;72.10;;;;;;5097779;28;20027;-75
2021/12/30 04:38:27;;;;;;;0.30;0.03;;;29.00;73.00;;;;;;5102810;28;20129;-76
2021/12/30 04:40:55;;;;;;;0.20;0.10;;;29.00;73.20;;;;;;5097818;27;20060;-76
2021/12/30 04:43:23;;;;;;;0.60;0.10;;;29.60;74.10;;;;;;5091174;28;20549;-77
2021/12/30 04:45:50;;;;;;;0.35;0.30;;;30.40;75.10;;;;;;5090322;28;20080;-75
2021/12/30 04:48:19;;;;;;;1.00;0.65;;;31.00;75.60;;;;;;5090220;28;20020;-77
2021/12/30 04:50:46;;;;;;;1.05;0.20;;;31.00;75.80;;;;;;5091372;28;20027;-75
2021/12/30 04:53:15;;;;;;;1.02;0.20;;;31.20;75.70;;;;;;5090602;28;20114;-76
2021/12/30 04:55:43;;;;;;;0.40;0.10;;;31.60;76.20;;;;;;5094953;28;20020;-75
2021/12/30 04:58:11;;;;;;;1.65;0.20;;;31.70;74.10;;;;;;5091771;28;20406;-76
2021/12/30 05:00:39;;;;;;;1.63;0.20;;;31.30;73.10;;;;;;5093370;27;20434;-77
2021/12/30 05:05:36;;;;;;;0.30;0.20;;;31.20;76.10;;;;;;5069633;28;20028;-76
2021/12/30 05:08:04;;;;;;;0.50;0.20;;;31.50;77.10;;;;;;5091669;28;20096;-76
2021/12/30 05:10:31;;;;;;;2.13;0.15;;;31.60;76.20;;;;;;5091210;28;20062;-73
2021/12/30 05:13:01;;;;;;;2.05;0.15;;;31.50;75.90;;;;;;5090519;28;20026;-74
2021/12/30 05:15:28;;;;;;;0.73;0.20;;;31.60;77.00;;;;;;5091747;28;20719;-75
2021/12/30 05:17:57;;;;;;;1.23;0.30;;;31.50;77.50;;;;;;5090650;28;20039;-75
2021/12/30 05:20:24;;;;;;;0.57;0.10;;;31.70;76.80;;;;;;5092860;28;20038;-77
2021/12/30 05:22:52;;;;;;;0.35;0.10;;;31.90;77.00;;;;;;5094035;28;20024;-76
2021/12/30 05:25:20;;;;;;;1.02;0.10;;;31.90;76.70;;;;;;5101104;28;20674;-76
2021/12/30 05:27:50;;;;;;;0.28;0.10;;;31.90;76.70;;;;;;5092400;27;20552;-76
2021/12/30 05:30:21;;;;;;;0.43;0.10;;;31.60;77.20;;;;;;5092041;28;20032;-74
2021/12/30 05:32:50;;;;;;;1.05;0.50;;;31.60;78.10;;;;;;5094188;28;20531;-74
2021/12/30 05:35:18;;;;;;;0.52;0.10;;;31.70;77.90;;;;;;5095607;28;20535;-76
2021/12/30 05:37:46;;;;;;;0.85;0.10;;;31.40;77.50;;;;;;5091190;28;20032;-76
2021/12/30 05:40:17;;;;;;;0.32;0.00;;;31.30;77.50;;;;;;5090344;28;20127;-76
2021/12/30 05:42:46;;;;;;;0.50;0.10;;;31.20;77.40;;;;;;5089967;28;20547;-76
2021/12/30 05:45:14;;;;;;;0.30;0.20;;;30.80;77.70;;;;;;5072403;28;20047;-77
2021/12/30 05:47:46;;;;;;;0.50;0.10;;;30.30;78.60;;;;;;5100753;28;20053;-75
2021/12/30 05:50:19;;;;;;;2.13;0.20;;;29.80;79.70;;;;;;5090209;28;20042;-76
2021/12/30 05:52:47;;;;;;;1.50;0.40;;;29.70;80.50;;;;;;5090245;28;20063;-75
2021/12/30 05:55:15;;;;;;;0.25;0.10;;;29.80;81.20;;;;;;5091749;28;20330;-76
2021/12/30 05:57:43;;;;;;;1.58;0.35;;;29.90;81.10;;;;;;5095355;28;20030;-74
2021/12/30 06:00:14;;;;;;;3.50;0.25;;;29.90;80.90;;;;;;5099735;28;20021;-75
2021/12/30 06:02:42;;;;;;;0.30;0.20;;;30.10;80.80;;;;;;5088778;28;20033;-75
2021/12/30 06:05:10;;;;;;;2.08;0.30;;;30.30;82.00;;;;;;5083064;28;20059;-76
2021/12/30 06:07:37;;;;;;;0.98;0.20;;;30.50;81.40;;;;;;5090577;28;20031;-77
2021/12/30 06:10:06;;;;;;;1.15;0.20;;;30.50;80.90;;;;;;5089813;28;20573;-72
2021/12/30 06:12:35;;;;;;;1.50;0.10;;;30.00;82.00;;;;;;5090559;28;20023;-74
2021/12/30 06:15:03;;;;;;;0.55;0.08;;;29.90;82.20;;;;;;5090648;28;20030;-74
2021/12/30 06:17:30;;;;;;;1.85;0.30;;;29.70;82.60;;;;;;5092761;28;20039;-75
2021/12/30 06:19:58;;;;;;;1.13;0.17;;;29.20;83.00;;;;;;5091759;28;20027;-74
2021/12/30 06:22:25;;;;;;;0.95;0.17;;;28.90;83.80;;;;;;5091155;28;20138;-76
2021/12/30 06:24:52;;;;;;;0.60;0.20;;;28.60;84.50;;;;;;5090822;28;20143;-76
2021/12/30 06:27:19;;;;;;;1.55;0.10;;;28.50;84.90;;;;;;5092302;28;20023;-76
2021/12/30 06:29:47;;;;;;;1.55;0.32;;;28.70;85.00;;;;;;5096400;28;20043;-75
2021/12/30 06:32:14;;;;;;;2.50;0.40;;;28.90;84.40;;;;;;5091619;28;20042;-75
2021/12/30 06:34:41;;;;;;;0.93;0.10;;;29.10;84.00;;;;;;5092349;28;20111;-78
2021/12/30 06:37:11;;;;;;;0.70;0.20;;;29.20;83.20;;;;;;5092717;28;20027;-74
2021/12/30 06:39:39;;;;;;;2.50;1.10;;;29.20;83.50;;;;;;5091205;28;20065;-77
2021/12/30 06:42:07;;;;;;;0.40;0.10;;;29.10;82.80;;;;;;5092851;28;20489;-75
2021/12/30 06:44:34;;;;;;;3.97;0.35;;;29.00;83.70;;;;;;5090034;28;20040;-75
2021/12/30 06:47:03;;;;;;;0.15;0.08;;;28.60;83.30;;;;;;5093711;27;20670;-74
2021/12/30 06:49:37;;;;;;;1.85;0.10;;;28.50;84.30;;;;;;5096621;28;20076;-73
2021/12/30 06:52:07;;;;;;;3.33;0.20;;;28.60;84.30;;;;;;5098128;28;20098;-72
2021/12/30 06:54:35;;;;;;;0.13;0.10;;;28.70;84.40;;;;;;5095688;28;20066;-72
2021/12/30 06:57:06;;;;;;;0.80;0.30;;;28.70;84.20;;;;;;5094392;27;20019;-73
2021/12/30 06:59:37;;;;;;;0.25;0.10;;;28.70;83.00;;;;;;5092520;27;20039;-75
2021/12/30 07:02:08;;;;;;;0.25;0.25;;;28.50;83.80;;;;;;5092117;28;20032;-73
2021/12/30 07:04:36;;;;;;;0.10;0.00;;;28.30;84.60;;;;;;5092491;27;20118;-76
2021/12/30 07:07:03;;;;;;;1.13;0.10;;;28.40;84.40;;;;;;5091410;28;22799;-74
2021/12/30 07:09:30;;;;;;;0.05;0.00;;;28.30;83.90;;;;;;5085773;28;20126;-77
2021/12/30 07:11:59;;;;;;;1.15;0.20;;;28.30;83.60;;;;;;5086918;28;20039;-72
2021/12/30 07:14:26;;;;;;;0.40;0.15;;;28.20;84.20;;;;;;5095777;27;20107;-74
2021/12/30 07:16:53;;;;;;;2.28;0.47;;;28.20;84.60;;;;;;5096499;27;20024;-75
2021/12/30 07:19:21;;;;;;;0.85;0.10;;;28.20;84.40;;;;;;5091992;28;20028;-73
2021/12/30 07:21:50;;;;;;;0.80;0.30;;;28.10;83.80;;;;;;5093062;27;20024;-73
2021/12/30 07:24:20;;;;;;;0.70;0.10;;;27.90;84.50;;;;;;5077448;28;20766;-75
2021/12/30 07:26:51;;;;;;;2.08;0.43;;;27.90;85.10;;;;;;5093478;27;20099;-72
2021/12/30 07:29:19;;;;;;;0.38;0.03;;;27.70;84.90;;;;;;5092664;27;20028;-73
2021/12/30 07:31:46;;;;;;;1.38;0.15;;;27.60;84.70;;;;;;5095227;28;20034;-72
2021/12/30 07:34:14;;;;;;;0.35;0.10;;;27.40;85.80;;;;;;5091594;27;20030;-74
2021/12/30 07:36:41;;;;;;;1.13;0.10;;;27.50;85.70;;;;;;5093648;28;20103;-73
2021/12/30 07:39:10;;;;;;;0.20;0.10;;;27.50;86.00;;;;;;5095176;27;20048;-73
2021/12/30 07:41:37;;;;;;;1.98;0.45;;;27.50;85.30;;;;;;5094845;28;20036;-74
2021/12/30 07:44:05;;;;;;;1.83;0.20;;;27.60;85.60;;;;;;5093234;27;20039;-75
2021/12/30 07:46:32;;;;;;;1.23;0.45;;;27.50;85.40;;;;;;5095221;28;20075;-74
2021/12/30 07:48:59;;;;;;;2.65;0.50;;;27.40;85.80;;;;;;5092766;28;20027;-73
2021/12/30 07:51:28;;;;;;;0.82;0.38;;;27.20;86.60;;;;;;5093192;28;20138;-76
2021/12/30 07:53:55;;;;;;;1.88;0.57;;;27.20;86.30;;;;;;5091612;28;20024;-76
2021/12/30 07:56:22;;;;;;;1.98;0.13;;;27.00;86.80;;;;;;5092752;28;20168;-74
2021/12/30 07:58:50;;;;;;;0.70;0.20;;;26.90;86.90;;;;;;5091336;28;20034;-77
2021/12/30 08:01:17;;;;;;;1.52;0.40;;;26.70;87.50;;;;;;5093737;28;20023;-74
2021/12/30 08:03:45;;;;;;;3.13;0.52;;;26.70;87.70;;;;;;5094229;28;20077;-75
2021/12/30 08:06:12;;;;;;;1.85;0.50;;;26.60;88.20;;;;;;5092752;28;20028;-73
2021/12/30 08:08:39;;;;;;;0.40;0.20;;;26.60;88.70;;;;;;5090238;28;20046;-73
2021/12/30 08:11:07;;;;;;;4.28;0.47;;;26.60;88.20;;;;;;5092282;28;20039;-73
2021/12/30 08:13:34;;;;;;;0.77;0.17;;;26.60;88.60;;;;;;5095229;27;20036;-73
2021/12/30 08:16:01;;;;;;;1.23;0.10;;;26.40;88.60;;;;;;5093932;28;20506;-75
2021/12/30 08:18:29;;;;;;;2.03;0.20;;;26.20;89.30;;;;;;5091836;28;20031;-75
2021/12/30 08:20:56;;;;;;;2.38;0.10;;;26.20;89.50;;;;;;5091927;28;20051;-73
2021/12/30 08:23:24;;;;;;;2.20;0.30;;;26.20;89.40;;;;;;5096040;28;21159;-77
2021/12/30 08:25:51;;;;;;;1.55;0.20;;;26.30;90.10;;;;;;5091970;28;20028;-77
2021/12/30 08:28:21;;;;;;;1.27;0.15;;;26.30;89.70;;;;;;5091012;28;20031;-75
2021/12/30 08:30:48;;;;;;;0.65;0.20;;;26.30;89.90;;;;;;5090049;27;20217;-76
2021/12/30 08:33:15;;;;;;;2.10;0.50;;;26.20;89.80;;;;;;5094402;28;20020;-74
2021/12/30 08:35:43;;;;;;;0.40;0.10;;;26.00;90.00;;;;;;5093980;28;20470;-75
2021/12/30 08:38:12;;;;;;;0.65;0.20;;;26.00;90.20;;;;;;5091967;28;20027;-74
2021/12/30 08:40:39;;;;;;;2.85;1.23;;;25.80;90.40;;;;;;5096601;27;20108;-74
2021/12/30 08:43:07;;;;;;;2.42;1.38;;;25.70;90.60;;;;;;5101731;28;20531;-74
2021/12/30 08:45:36;;;;;;;2.30;1.27;;;25.70;90.60;;;;;;5091765;28;20046;-76
2021/12/30 08:48:06;;;;;;;3.58;0.73;;;25.60;90.80;;;;;;5091145;28;20145;-74
2021/12/30 08:50:34;;;;;;;2.53;0.50;;;25.50;90.80;;;;;;5090535;28;20088;-73
2021/12/30 08:53:04;;;;;;;5.15;0.85;;;25.50;91.10;;;;;;5090688;28;20042;-74
2021/12/30 08:55:31;;;;;;;1.67;0.30;;;25.30;91.20;;;;;;5093183;28;20069;-74
2021/12/30 08:57:58;;;;;;;3.60;0.40;;;25.30;91.40;;;;;;5091513;27;20027;-76
2021/12/30 09:00:29;;;;;;;0.95;0.25;;;25.20;91.60;;;;;;5093299;28;20076;-75
2021/12/30 09:03:00;;;;;;;1.17;0.00;;;25.00;91.80;;;;;;5098935;28;20509;-73
2021/12/30 09:05:28;;;;;;;0.45;0.15;;;25.00;92.00;;;;;;5100276;28;20723;-73
2021/12/30 09:07:55;;;;;;;2.63;0.38;;;24.80;92.10;;;;;;5090106;28;20165;-73
2021/12/30 09:10:23;;;;;;;0.10;0.10;;;24.70;92.30;;;;;;5091034;28;21038;-73
2021/12/30 09:12:52;;;;;;;0.93;0.68;;;24.60;92.30;;;;;;5091887;28;20036;-74
2021/12/30 09:15:22;;;;;;;1.02;0.20;;;24.60;92.60;;;;;;5090643;28;20066;-73
2021/12/30 09:17:51;;;;;;;0.40;0.20;;;24.50;92.70;;;;;;5091067;27;20031;-74
2021/12/30 09:20:19;;;;;;;3.40;0.30;;;24.60;92.80;;;;;;5093508;28;20047;-74
2021/12/30 09:22:47;;;;;;;0.68;0.38;;;24.50;92.90;;;;;;5087122;28;20130;-74
2021/12/30 09:25:17;;;;;;;1.02;0.73;;;24.50;93.00;;;;;;5083829;28;20177;-75
2021/12/30 09:27:44;;;;;;;3.00;0.30;;;24.40;93.10;;;;;;5091380;28;20059;-77
2021/12/30 09:30:14;;;;;;;0.52;0.20;;;24.20;93.40;;;;;;5091252;28;20115;-76
2021/12/30 09:32:42;;;;;;;2.03;0.30;;;24.20;93.60;;;;;;5089801;28;20073;-77
2021/12/30 09:35:11;;;;;;;1.67;0.20;;;24.10;93.90;;;;;;5090306;28;20054;-76
2021/12/30 09:37:39;;;;;;;0.82;0.20;;;23.90;94.10;;;;;;5092868;28;20106;-77
2021/12/30 09:40:10;;;;;;;0.20;0.20;;;23.80;94.50;;;;;;5092676;28;20114;-76
2021/12/30 09:42:43;;;;;;;1.77;0.40;;;23.80;94.40;;;;;;5092054;28;20039;-78
2021/12/30 09:45:11;;;;;;;1.05;0.28;;;23.70;94.60;;;;;;5089961;28;20036;-76
2021/12/30 09:47:57;;;;;;;0.50;0.28;;;23.70;94.70;;;;;;5091318;28;22779;-76
2021/12/30 09:50:32;;;;;;;0.20;0.20;;;23.60;94.90;;;;;;5090889;28;20097;-74
2021/12/30 09:53:02;;;;;;;2.33;0.20;;;23.70;94.80;;;;;;5092200;28;20058;-78
2021/12/30 09:55:31;;;;;;;1.88;0.15;;;23.60;94.80;;;;;;5091620;28;20024;-77
2021/12/30 09:57:59;;;;;;;2.03;0.17;;;23.60;95.10;;;;;;5090212;28;20031;-76
2021/12/30 10:00:28;;;;;;;0.20;0.10;;;23.80;94.60;;;;;;5091663;28;20424;-74
2021/12/30 10:02:55;;;;;;;2.05;0.20;;;23.70;94.70;;;;;;5089835;28;20082;-77
2021/12/30 10:05:27;;;;;;;1.17;0.20;;;23.50;95.10;;;;;;5089677;28;20850;-74
2021/12/30 10:08:21;;;;;;;1.77;0.73;;;23.40;95.20;;;;;;5071112;28;20027;-76
2021/12/30 10:10:56;;;;;;;1.63;0.75;;;23.20;95.70;;;;;;5093570;28;20031;-76
2021/12/30 10:13:29;;;;;;;1.45;0.17;;;23.10;96.10;;;;;;5096809;28;20035;-75
2021/12/30 10:16:17;;;;;;;1.15;0.20;;;23.00;96.10;;;;;;5091068;28;20042;-77
2021/12/30 10:18:57;;;;;;;0.43;0.20;;;22.90;96.40;;;;;;5093765;28;20069;-75
2021/12/30 10:21:40;;;;;;;0.60;0.20;;;22.90;96.50;;;;;;5094560;28;20038;-73
2021/12/30 10:24:10;;;;;;;0.63;0.10;;;22.90;96.70;;;;;;5092107;28;20058;-77
2021/12/30 10:26:56;;;;;;;0.43;0.08;;;22.80;97.00;;;;;;5088426;28;20028;-75
2021/12/30 10:29:28;;;;;;;5.15;0.35;;;22.70;97.30;;;;;;5093315;28;20032;-76
2021/12/30 10:31:55;;;;;;;0.80;0.10;;;22.60;97.60;;;;;;5095916;27;20106;-75
2021/12/30 10:34:22;;;;;;;1.70;0.25;;;22.60;98.00;;;;;;5097039;28;20051;-75
2021/12/30 10:36:51;;;;;;;1.08;0.17;;;22.60;97.90;;;;;;5106740;28;20122;-79
2021/12/30 10:39:27;;;;;;;0.30;0.10;;;22.50;98.10;;;;;;5104838;28;20048;-80
2021/12/30 10:42:19;;;;;;;1.70;0.30;;;22.50;98.30;;;;;;5107869;28;20393;-77
2021/12/30 10:45:07;;;;;;;0.68;0.20;;;22.50;98.60;;;;;;5105780;27;20502;-75
2021/12/30 10:47:51;;;;;;;4.50;0.60;;;22.40;98.90;;;;;;5111696;28;20035;-77
2021/12/30 10:50:22;;;;;;;1.90;0.90;;;22.40;99.00;;;;;;5108432;28;20604;-77
2021/12/30 10:52:52;;;;;;;5.70;1.67;;;22.30;99.20;;;;;;5092087;28;20058;-76
2021/12/30 10:55:21;;;;;;;1.27;0.30;;;22.30;99.60;;;;;;5092016;27;20393;-77
2021/12/30 10:57:48;;;;;;;2.67;0.22;;;22.20;99.60;;;;;;5093276;27;20046;-75
2021/12/30 11:00:31;;;;;;;0.40;0.20;;;22.20;99.80;;;;;;5092576;27;20032;-75
2021/12/30 11:03:25;;;;;;;5.00;0.47;;;22.20;99.90;;;;;;5092728;28;20023;-77
2021/12/30 11:06:17;;;;;;;0.73;0.30;;;22.10;99.90;;;;;;5095142;27;20031;-76
2021/12/30 11:08:46;;;;;;;0.98;0.20;;;22.10;99.90;;;;;;5093539;28;20028;-79
2021/12/30 11:11:23;;;;;;;1.40;0.38;;;22.00;99.90;;;;;;5094278;28;20024;-78
2021/12/30 11:14:01;;;;;;;2.38;0.28;;;22.00;99.90;;;;;;5093174;28;20019;-77
2021/12/30 11:16:29;;;;;;;3.20;0.30;;;22.00;99.90;;;;;;5072034;28;20053;-78
2021/12/30 11:18:58;;;;;;;0.73;0.30;;;22.00;99.90;;;;;;5092509;28;20163;-76
2021/12/30 11:21:43;;;;;;;1.30;0.38;;;22.00;99.90;;;;;;5094129;28;20034;-79
2021/12/30 11:24:12;;;;;;;1.33;0.20;;;22.00;99.90;;;;;;5095217;27;20959;-73
2021/12/30 11:26:39;;;;;;;0.35;0.20;;;21.90;99.90;;;;;;5094227;28;20036;-78
2021/12/30 11:29:07;;;;;;;0.70;0.30;;;21.80;99.90;;;;;;5091418;27;20123;-75
2021/12/30 11:31:35;;;;;;;1.75;0.15;;;21.80;99.90;;;;;;5083705;28;20016;-76
2021/12/30 11:34:03;;;;;;;1.20;0.20;;;21.70;99.90;;;;;;5087013;28;20030;-75
2021/12/30 11:36:33;;;;;;;1.02;0.10;;;21.70;99.90;;;;;;5094675;27;20032;-77
2021/12/30 11:39:12;;;;;;;0.82;0.40;;;21.60;99.90;;;;;;5092031;28;20048;-74
2021/12/30 11:41:41;;;;;;;1.35;0.55;;;21.60;99.90;;;;;;5093174;28;20177;-76
2021/12/30 11:44:08;;;;;;;1.17;0.20;;;21.50;99.90;;;;;;5093910;28;20140;-75
2021/12/30 11:46:45;;;;;;;1.27;0.20;;;21.50;99.90;;;;;;5091509;28;20150;-77
2021/12/30 11:49:14;;;;;;;2.40;0.57;;;21.40;99.90;;;;;;5090709;27;20080;-76
2021/12/30 11:51:53;;;;;;;0.93;0.30;;;21.40;99.90;;;;;;5090865;28;20031;-78
2021/12/30 11:54:32;;;;;;;1.38;0.73;;;21.40;99.90;;;;;;5091621;27;20031;-76
2021/12/30 11:57:28;;;;;;;5.68;0.68;;;21.40;99.90;;;;;;5091917;28;20028;-77
2021/12/30 12:00:00;;;;;;;2.58;0.50;;;21.40;99.90;;;;;;5088299;28;20027;-75
2021/12/30 12:02:31;;;;;;;2.03;0.30;;;21.30;99.90;;;;;;5075071;28;20054;-78
2021/12/30 12:04:59;;;;;;;4.68;0.32;;;21.20;99.90;;;;;;5092092;28;20080;-74
2021/12/30 12:07:26;;;;;;;0.70;0.50;;;21.20;99.90;;;;;;5092538;27;20024;-74
2021/12/30 12:09:54;;;;;;;1.00;0.40;;;21.20;99.90;;;;;;5101492;28;20451;-75
2021/12/30 12:12:35;;;;;;;0.70;0.28;;;21.10;99.90;;;;;;5091086;28;20034;-77
2021/12/30 12:15:04;;;;;;;5.10;0.40;;;21.10;99.90;;;;;;5090463;28;20027;-76
2021/12/30 12:17:37;;;;;;;1.75;0.52;;;21.10;99.90;;;;;;5088705;28;20043;-78
2021/12/30 12:20:21;;;;;;;1.35;0.30;;;21.10;99.90;;;;;;5091651;28;20024;-75
2021/12/30 12:22:49;;;;;;;0.70;0.40;;;21.10;99.90;;;;;;5091952;28;20474;-75
2021/12/30 12:25:22;;;;;;;2.20;0.30;;;21.20;99.90;;;;;;5090835;27;20135;-76
2021/12/30 12:27:54;;;;;;;1.10;0.20;;;21.30;99.90;;;;;;5091206;28;20027;-77
2021/12/30 12:30:36;;;;;;;0.55;0.30;;;21.30;99.90;;;;;;5091209;28;20112;-77
2021/12/30 12:33:26;;;;;;;2.70;0.98;;;21.30;99.90;;;;;;5072872;28;20055;-77
2021/12/30 12:35:54;;;;;;;1.42;0.57;;;21.40;99.90;;;;;;5092466;28;20393;-77
2021/12/30 12:38:48;;;;;;;2.42;0.30;;;21.40;99.90;;;;;;5091202;28;20028;-77
2021/12/30 12:41:20;;;;;;;1.25;0.20;;;21.30;99.90;;;;;;5091794;28;20027;-75
2021/12/30 12:43:58;;;;;;;2.92;0.40;;;21.30;99.90;;;;;;5090111;28;20031;-74
2021/12/30 12:46:39;;;;;;;2.70;0.50;;;21.30;99.90;;;;;;5091885;27;20028;-78
2021/12/30 12:49:08;;;;;;;5.65;0.30;;;21.20;99.90;;;;;;5090884;28;20100;-77
2021/12/30 12:51:37;;;;;;;1.55;0.10;;;21.10;99.90;;;;;;5092242;28;20457;-77
2021/12/30 12:54:06;;;;;;;1.45;0.30;;;21.10;99.90;;;;;;5090176;28;20167;-78
2021/12/30 12:56:38;;;;;;;4.50;0.40;;;21.10;99.90;;;;;;5089932;28;20076;-79
2021/12/30 12:59:10;;;;;;;2.67;0.30;;;21.10;99.90;;;;;;5090145;27;20031;-78
2021/12/30 13:01:40;;;;;;;2.08;0.40;;;21.10;99.90;;;;;;5092340;28;20019;-78
2021/12/30 13:04:10;;;;;;;1.98;0.40;;;21.00;99.90;;;;;;5090687;27;20046;-75
2021/12/30 13:06:43;;;;;;;2.20;0.30;;;21.00;99.90;;;;;;5094300;28;20031;-74